Edwardsville, New York
Current Conditions -  °F | °C
As of 2:58 PM on Saturday 25 Oct 2014 (Local Time) from KGTB Reporting Station
Light Rain Light Rain  
Wind Chill: 58°   Ceiling: 9000
Heat Index: 58°   Visibility: 9mi
Dew Point: 47°   Wind: 10mph
Humidity: 68%   Direction: 210°SSW
Pressure: 29.55"   Gusts: NA
Location:  44.435°N, 75.6656°W
Report Text: KGTB 251858Z AUTO 21009KT 9SM -RA SCT022 BKN090 14/08 A2955 RMK AO2 RAB1849DZB1837E1849 SLP008 P0000 T01420083
Loading
Personal Weather Stations






























Interactive Weather Map
Tropical Storm Tracking
New forecast layout! Learn more

10-Day Weather Forecast

Advertisements
Track Severe Weather on mobile